LPFL/FLW METAR and TAF weather

Enter ICAO airport designator
Station Type Date Time Source
LPFL METAR 2020/01/22 18:00 UTC NOAA

LPFL 221800Z VRB06KT 9999 FEW018 BKN035 16/10 Q1030


Station Type Date Time Source
LPFL Decoded METAR 2020/01/22 18:00 UTC NOAA

Flores Acores , Portugal (LPFL) 39-27N 031-08W 29M
Jan 22, 2020 - 01:00 PM EST / 2020.01.22 1800 UTC
Wind: Variable at 7 MPH (6 KT):0
Visibility: greater than 7 mile(s):0
Sky conditions: mostly cloudy
Temperature: 60 F (16 C)
Dew Point: 50 F (10 C)
Relative Humidity: 67%
Pressure (altimeter): 30.42 in. Hg (1030 hPa)
ob: LPFL 221800Z VRB06KT 9999 FEW018 BKN035 16/10 Q1030
cycle: 18

Station Type Date Time Source
LPFL TAF UTC NOAA

Error!

Example: see airport list